sensor_id;sensor_type;location;lat;lon;timestamp;temperature;humidity
71801;HTU21D;59647;55.838;37.292;2023-12-07T00:00:33;-5.85;74.46
71801;HTU21D;59647;55.838;37.292;2023-12-07T00:02:59;-5.84;74.24
71801;HTU21D;59647;55.838;37.292;2023-12-07T00:05:25;-5.79;74.37
71801;HTU21D;59647;55.838;37.292;2023-12-07T00:07:51;-5.76;74.17
71801;HTU21D;59647;55.838;37.292;2023-12-07T00:10:17;-5.71;74.38
71801;HTU21D;59647;55.838;37.292;2023-12-07T00:12:43;-5.70;74.21
71801;HTU21D;59647;55.838;37.292;2023-12-07T00:15:09;-5.69;74.21
71801;HTU21D;59647;55.838;37.292;2023-12-07T00:17:35;-5.62;74.25
71801;HTU21D;59647;55.838;37.292;2023-12-07T00:20:01;-5.56;74.26
71801;HTU21D;59647;55.838;37.292;2023-12-07T00:22:31;-5.49;74.06
71801;HTU21D;59647;55.838;37.292;2023-12-07T00:24:57;-5.42;73.98
71801;HTU21D;59647;55.838;37.292;2023-12-07T00:27:23;-5.39;73.72
71801;HTU21D;59647;55.838;37.292;2023-12-07T00:29:50;-5.44;73.41
71801;HTU21D;59647;55.838;37.292;2023-12-07T00:32:16;-5.47;73.26
71801;HTU21D;59647;55.838;37.292;2023-12-07T00:34:43;-5.48;73.44
71801;HTU21D;59647;55.838;37.292;2023-12-07T00:37:09;-5.56;72.90
71801;HTU21D;59647;55.838;37.292;2023-12-07T00:39:35;-5.62;73.03
71801;HTU21D;59647;55.838;37.292;2023-12-07T00:42:02;-5.61;73.42
71801;HTU21D;59647;55.838;37.292;2023-12-07T00:44:28;-5.60;73.64
71801;HTU21D;59647;55.838;37.292;2023-12-07T00:46:55;-5.55;73.51
71801;HTU21D;59647;55.838;37.292;2023-12-07T00:49:21;-5.53;73.32
71801;HTU21D;59647;55.838;37.292;2023-12-07T00:51:46;-5.50;73.54
71801;HTU21D;59647;55.838;37.292;2023-12-07T00:54:12;-5.48;73.47
71801;HTU21D;59647;55.838;37.292;2023-12-07T00:56:39;-5.49;73.31
71801;HTU21D;59647;55.838;37.292;2023-12-07T00:59:05;-5.47;73.12
71801;HTU21D;59647;55.838;37.292;2023-12-07T01:01:31;-5.48;73.23
71801;HTU21D;59647;55.838;37.292;2023-12-07T01:03:56;-5.48;73.20
71801;HTU21D;59647;55.838;37.292;2023-12-07T01:06:22;-5.44;73.09
71801;HTU21D;59647;55.838;37.292;2023-12-07T01:08:48;-5.44;72.99
71801;HTU21D;59647;55.838;37.292;2023-12-07T01:11:14;-5.42;72.83
71801;HTU21D;59647;55.838;37.292;2023-12-07T01:13:40;-5.42;72.80
71801;HTU21D;59647;55.838;37.292;2023-12-07T01:16:06;-5.40;72.71
71801;HTU21D;59647;55.838;37.292;2023-12-07T01:18:32;-5.37;72.52
71801;HTU21D;59647;55.838;37.292;2023-12-07T01:20:58;-5.34;72.58
71801;HTU21D;59647;55.838;37.292;2023-12-07T01:23:24;-5.34;72.51
71801;HTU21D;59647;55.838;37.292;2023-12-07T01:25:50;-5.29;72.73
71801;HTU21D;59647;55.838;37.292;2023-12-07T01:28:16;-5.26;72.52
71801;HTU21D;59647;55.838;37.292;2023-12-07T01:30:42;-5.26;72.12
71801;HTU21D;59647;55.838;37.292;2023-12-07T01:33:07;-5.30;71.94
71801;HTU21D;59647;55.838;37.292;2023-12-07T01:35:33;-5.28;72.01
71801;HTU21D;59647;55.838;37.292;2023-12-07T01:37:59;-5.38;71.32
71801;HTU21D;59647;55.838;37.292;2023-12-07T01:40:25;-5.40;71.60
71801;HTU21D;59647;55.838;37.292;2023-12-07T01:42:52;-5.43;71.84
71801;HTU21D;59647;55.838;37.292;2023-12-07T01:45:19;-5.44;71.67
71801;HTU21D;59647;55.838;37.292;2023-12-07T01:47:46;-5.41;71.81
71801;HTU21D;59647;55.838;37.292;2023-12-07T01:50:13;-5.38;71.93
71801;HTU21D;59647;55.838;37.292;2023-12-07T01:52:47;-5.40;71.55
71801;HTU21D;59647;55.838;37.292;2023-12-07T01:55:14;-5.39;71.81
71801;HTU21D;59647;55.838;37.292;2023-12-07T01:57:42;-5.38;71.55
71801;HTU21D;59647;55.838;37.292;2023-12-07T02:00:09;-5.39;71.61
71801;HTU21D;59647;55.838;37.292;2023-12-07T02:02:35;-5.37;71.71
71801;HTU21D;59647;55.838;37.292;2023-12-07T02:05:02;-5.38;71.59
71801;HTU21D;59647;55.838;37.292;2023-12-07T02:07:31;-5.41;71.32
71801;HTU21D;59647;55.838;37.292;2023-12-07T02:09:58;-5.40;71.55
71801;HTU21D;59647;55.838;37.292;2023-12-07T02:12:24;-5.41;71.49
71801;HTU21D;59647;55.838;37.292;2023-12-07T02:14:52;-5.40;71.51
71801;HTU21D;59647;55.838;37.292;2023-12-07T02:20:12;-5.39;71.52
71801;HTU21D;59647;55.838;37.292;2023-12-07T02:22:54;-5.53;70.16
71801;HTU21D;59647;55.838;37.292;2023-12-07T02:25:32;-5.68;70.42
71801;HTU21D;59647;55.838;37.292;2023-12-07T02:27:59;-5.67;71.44
71801;HTU21D;59647;55.838;37.292;2023-12-07T02:30:25;-5.69;71.58
71801;HTU21D;59647;55.838;37.292;2023-12-07T02:32:51;-5.65;71.42
71801;HTU21D;59647;55.838;37.292;2023-12-07T02:35:17;-5.63;71.51
71801;HTU21D;59647;55.838;37.292;2023-12-07T02:37:48;-5.71;71.17
71801;HTU21D;59647;55.838;37.292;2023-12-07T02:40:21;-5.81;71.08
71801;HTU21D;59647;55.838;37.292;2023-12-07T02:42:47;-5.81;71.35
71801;HTU21D;59647;55.838;37.292;2023-12-07T02:45:14;-5.84;71.13
71801;HTU21D;59647;55.838;37.292;2023-12-07T02:47:40;-5.87;71.47
71801;HTU21D;59647;55.838;37.292;2023-12-07T02:50:09;-5.86;71.70
71801;HTU21D;59647;55.838;37.292;2023-12-07T02:52:35;-5.89;71.64
71801;HTU21D;59647;55.838;37.292;2023-12-07T02:55:01;-5.94;71.48
71801;HTU21D;59647;55.838;37.292;2023-12-07T02:57:31;-6.01;71.58
71801;HTU21D;59647;55.838;37.292;2023-12-07T03:00:01;-6.08;71.58
71801;HTU21D;59647;55.838;37.292;2023-12-07T03:02:38;-6.07;71.74
71801;HTU21D;59647;55.838;37.292;2023-12-07T03:05:06;-6.11;72.00
71801;HTU21D;59647;55.838;37.292;2023-12-07T03:07:35;-6.08;72.12
71801;HTU21D;59647;55.838;37.292;2023-12-07T03:10:02;-6.07;72.03
71801;HTU21D;59647;55.838;37.292;2023-12-07T03:12:31;-6.03;72.14
71801;HTU21D;59647;55.838;37.292;2023-12-07T03:14:57;-5.99;71.55
71801;HTU21D;59647;55.838;37.292;2023-12-07T03:17:23;-6.00;71.85
71801;HTU21D;59647;55.838;37.292;2023-12-07T03:19:49;-6.13;71.66
71801;HTU21D;59647;55.838;37.292;2023-12-07T03:22:15;-6.09;71.94
71801;HTU21D;59647;55.838;37.292;2023-12-07T03:24:46;-6.04;71.99
71801;HTU21D;59647;55.838;37.292;2023-12-07T03:27:13;-6.07;71.77
71801;HTU21D;59647;55.838;37.292;2023-12-07T03:29:39;-6.09;71.99
71801;HTU21D;59647;55.838;37.292;2023-12-07T03:32:05;-6.05;71.35
71801;HTU21D;59647;55.838;37.292;2023-12-07T03:34:31;-6.06;71.67
71801;HTU21D;59647;55.838;37.292;2023-12-07T03:36:57;-5.97;71.94
71801;HTU21D;59647;55.838;37.292;2023-12-07T03:39:23;-5.98;71.51
71801;HTU21D;59647;55.838;37.292;2023-12-07T03:41:51;-6.02;71.80
71801;HTU21D;59647;55.838;37.292;2023-12-07T03:44:17;-6.05;71.58
71801;HTU21D;59647;55.838;37.292;2023-12-07T03:46:43;-6.07;71.15
71801;HTU21D;59647;55.838;37.292;2023-12-07T03:49:09;-6.09;70.98
71801;HTU21D;59647;55.838;37.292;2023-12-07T03:51:35;-6.09;71.42
71801;HTU21D;59647;55.838;37.292;2023-12-07T03:54:03;-6.08;71.77
71801;HTU21D;59647;55.838;37.292;2023-12-07T03:56:29;-6.01;71.75
71801;HTU21D;59647;55.838;37.292;2023-12-07T03:58:56;-5.94;71.65
71801;HTU21D;59647;55.838;37.292;2023-12-07T04:01:26;-5.90;71.26
71801;HTU21D;59647;55.838;37.292;2023-12-07T04:03:54;-5.90;71.22
71801;HTU21D;59647;55.838;37.292;2023-12-07T04:06:23;-5.89;71.63
71801;HTU21D;59647;55.838;37.292;2023-12-07T04:08:50;-5.88;70.93
71801;HTU21D;59647;55.838;37.292;2023-12-07T04:11:16;-5.90;71.32
71801;HTU21D;59647;55.838;37.292;2023-12-07T04:13:43;-5.92;71.15
71801;HTU21D;59647;55.838;37.292;2023-12-07T04:16:10;-5.91;71.13
71801;HTU21D;59647;55.838;37.292;2023-12-07T04:18:36;-5.86;71.80
71801;HTU21D;59647;55.838;37.292;2023-12-07T04:21:02;-5.90;71.03
71801;HTU21D;59647;55.838;37.292;2023-12-07T04:23:29;-5.91;70.70
71801;HTU21D;59647;55.838;37.292;2023-12-07T04:25:55;-5.90;71.44
71801;HTU21D;59647;55.838;37.292;2023-12-07T04:28:21;-5.88;71.40
71801;HTU21D;59647;55.838;37.292;2023-12-07T04:30:47;-5.89;70.82
71801;HTU21D;59647;55.838;37.292;2023-12-07T04:33:13;-5.97;71.14
71801;HTU21D;59647;55.838;37.292;2023-12-07T04:35:39;-5.93;71.15
71801;HTU21D;59647;55.838;37.292;2023-12-07T04:38:05;-5.92;71.09
71801;HTU21D;59647;55.838;37.292;2023-12-07T04:40:31;-5.96;70.98
71801;HTU21D;59647;55.838;37.292;2023-12-07T04:42:57;-5.93;70.58
71801;HTU21D;59647;55.838;37.292;2023-12-07T04:45:22;-5.94;70.92
71801;HTU21D;59647;55.838;37.292;2023-12-07T04:47:48;-5.91;71.10
71801;HTU21D;59647;55.838;37.292;2023-12-07T04:50:14;-5.91;71.29
71801;HTU21D;59647;55.838;37.292;2023-12-07T04:52:41;-5.90;70.87
71801;HTU21D;59647;55.838;37.292;2023-12-07T04:55:07;-5.85;71.06
71801;HTU21D;59647;55.838;37.292;2023-12-07T04:57:35;-5.87;70.52
71801;HTU21D;59647;55.838;37.292;2023-12-07T05:00:02;-5.87;70.71
71801;HTU21D;59647;55.838;37.292;2023-12-07T05:02:32;-5.93;70.35
71801;HTU21D;59647;55.838;37.292;2023-12-07T05:04:59;-5.89;70.79
71801;HTU21D;59647;55.838;37.292;2023-12-07T05:07:25;-5.92;70.55
71801;HTU21D;59647;55.838;37.292;2023-12-07T05:09:51;-5.86;71.02
71801;HTU21D;59647;55.838;37.292;2023-12-07T05:12:17;-5.85;70.67
71801;HTU21D;59647;55.838;37.292;2023-12-07T05:14:44;-5.82;70.42
71801;HTU21D;59647;55.838;37.292;2023-12-07T05:17:10;-5.81;70.39
71801;HTU21D;59647;55.838;37.292;2023-12-07T05:19:36;-5.78;70.19
71801;HTU21D;59647;55.838;37.292;2023-12-07T05:22:02;-5.78;70.13
71801;HTU21D;59647;55.838;37.292;2023-12-07T05:24:28;-5.79;70.32
71801;HTU21D;59647;55.838;37.292;2023-12-07T05:26:56;-5.86;70.06
71801;HTU21D;59647;55.838;37.292;2023-12-07T05:29:22;-5.84;70.16
71801;HTU21D;59647;55.838;37.292;2023-12-07T05:31:51;-5.87;69.34
71801;HTU21D;59647;55.838;37.292;2023-12-07T05:34:17;-5.86;70.55
71801;HTU21D;59647;55.838;37.292;2023-12-07T05:36:44;-6.01;69.73
71801;HTU21D;59647;55.838;37.292;2023-12-07T05:39:10;-6.03;69.92
71801;HTU21D;59647;55.838;37.292;2023-12-07T05:41:37;-6.12;69.62
71801;HTU21D;59647;55.838;37.292;2023-12-07T05:44:03;-6.13;69.95
71801;HTU21D;59647;55.838;37.292;2023-12-07T05:46:30;-6.12;70.48
71801;HTU21D;59647;55.838;37.292;2023-12-07T05:48:56;-6.08;70.56
71801;HTU21D;59647;55.838;37.292;2023-12-07T05:51:23;-6.08;70.23
71801;HTU21D;59647;55.838;37.292;2023-12-07T05:53:49;-6.08;70.42
71801;HTU21D;59647;55.838;37.292;2023-12-07T05:56:19;-6.03;70.51
71801;HTU21D;59647;55.838;37.292;2023-12-07T05:58:48;-6.00;70.60
71801;HTU21D;59647;55.838;37.292;2023-12-07T06:01:18;-5.96;70.18
71801;HTU21D;59647;55.838;37.292;2023-12-07T06:03:46;-5.91;70.21
71801;HTU21D;59647;55.838;37.292;2023-12-07T06:06:12;-5.90;70.09
71801;HTU21D;59647;55.838;37.292;2023-12-07T06:08:39;-5.90;69.59
71801;HTU21D;59647;55.838;37.292;2023-12-07T06:11:05;-5.88;69.88
71801;HTU21D;59647;55.838;37.292;2023-12-07T06:13:31;-5.92;69.74
71801;HTU21D;59647;55.838;37.292;2023-12-07T06:15:57;-5.90;69.96
71801;HTU21D;59647;55.838;37.292;2023-12-07T06:18:23;-5.88;69.89
71801;HTU21D;59647;55.838;37.292;2023-12-07T06:20:50;-5.84;70.09
71801;HTU21D;59647;55.838;37.292;2023-12-07T06:23:16;-5.82;69.59
71801;HTU21D;59647;55.838;37.292;2023-12-07T06:25:42;-5.83;68.99
71801;HTU21D;59647;55.838;37.292;2023-12-07T06:28:08;-5.82;69.46
71801;HTU21D;59647;55.838;37.292;2023-12-07T06:30:35;-5.82;69.71
71801;HTU21D;59647;55.838;37.292;2023-12-07T06:33:01;-5.85;69.80
71801;HTU21D;59647;55.838;37.292;2023-12-07T06:35:27;-5.90;70.12
71801;HTU21D;59647;55.838;37.292;2023-12-07T06:37:54;-5.86;70.46
71801;HTU21D;59647;55.838;37.292;2023-12-07T06:40:20;-5.82;70.52
71801;HTU21D;59647;55.838;37.292;2023-12-07T06:42:46;-5.77;70.41
71801;HTU21D;59647;55.838;37.292;2023-12-07T06:45:14;-5.77;69.63
71801;HTU21D;59647;55.838;37.292;2023-12-07T06:47:41;-5.77;69.59
71801;HTU21D;59647;55.838;37.292;2023-12-07T06:50:10;-5.76;70.00
71801;HTU21D;59647;55.838;37.292;2023-12-07T06:52:37;-5.82;69.25
71801;HTU21D;59647;55.838;37.292;2023-12-07T06:55:04;-5.79;70.06
71801;HTU21D;59647;55.838;37.292;2023-12-07T06:57:32;-5.75;70.04
71801;HTU21D;59647;55.838;37.292;2023-12-07T07:00:02;-5.70;69.89
71801;HTU21D;59647;55.838;37.292;2023-12-07T07:02:33;-5.68;69.50
71801;HTU21D;59647;55.838;37.292;2023-12-07T07:05:00;-5.60;69.82
71801;HTU21D;59647;55.838;37.292;2023-12-07T07:07:26;-5.54;69.47
71801;HTU21D;59647;55.838;37.292;2023-12-07T07:09:52;-5.44;68.89
71801;HTU21D;59647;55.838;37.292;2023-12-07T07:12:18;-5.32;69.36
71801;HTU21D;59647;55.838;37.292;2023-12-07T07:14:44;-5.24;69.13
71801;HTU21D;59647;55.838;37.292;2023-12-07T07:17:10;-5.19;67.98
71801;HTU21D;59647;55.838;37.292;2023-12-07T07:19:36;-5.20;67.51
71801;HTU21D;59647;55.838;37.292;2023-12-07T07:22:02;-5.15;66.94
71801;HTU21D;59647;55.838;37.292;2023-12-07T07:24:28;-5.12;66.91
71801;HTU21D;59647;55.838;37.292;2023-12-07T07:26:54;-5.12;67.24
71801;HTU21D;59647;55.838;37.292;2023-12-07T07:29:20;-5.05;67.27
71801;HTU21D;59647;55.838;37.292;2023-12-07T07:31:46;-4.89;66.66
71801;HTU21D;59647;55.838;37.292;2023-12-07T07:34:12;-4.73;65.83
71801;HTU21D;59647;55.838;37.292;2023-12-07T07:36:39;-4.57;66.43
71801;HTU21D;59647;55.838;37.292;2023-12-07T07:39:05;-4.48;64.98
71801;HTU21D;59647;55.838;37.292;2023-12-07T07:41:35;-4.48;64.37
71801;HTU21D;59647;55.838;37.292;2023-12-07T07:44:01;-4.53;61.77
71801;HTU21D;59647;55.838;37.292;2023-12-07T07:46:27;-4.52;63.69
71801;HTU21D;59647;55.838;37.292;2023-12-07T07:48:53;-4.58;62.99
71801;HTU21D;59647;55.838;37.292;2023-12-07T07:51:19;-4.59;63.24
71801;HTU21D;59647;55.838;37.292;2023-12-07T07:53:45;-4.60;62.46
71801;HTU21D;59647;55.838;37.292;2023-12-07T07:56:11;-4.53;64.47
71801;HTU21D;59647;55.838;37.292;2023-12-07T07:58:37;-4.53;61.68
71801;HTU21D;59647;55.838;37.292;2023-12-07T08:01:03;-4.49;62.72
71801;HTU21D;59647;55.838;37.292;2023-12-07T08:03:29;-4.42;63.74
71801;HTU21D;59647;55.838;37.292;2023-12-07T08:05:55;-4.35;63.33
71801;HTU21D;59647;55.838;37.292;2023-12-07T08:08:21;-4.34;62.21
71801;HTU21D;59647;55.838;37.292;2023-12-07T08:10:47;-4.37;59.84
71801;HTU21D;59647;55.838;37.292;2023-12-07T08:13:12;-4.36;62.60
71801;HTU21D;59647;55.838;37.292;2023-12-07T08:15:38;-4.30;62.15
71801;HTU21D;59647;55.838;37.292;2023-12-07T08:18:04;-4.28;60.86
71801;HTU21D;59647;55.838;37.292;2023-12-07T08:20:31;-4.34;59.43
71801;HTU21D;59647;55.838;37.292;2023-12-07T08:22:57;-4.34;59.61
71801;HTU21D;59647;55.838;37.292;2023-12-07T08:25:22;-4.35;59.21
71801;HTU21D;59647;55.838;37.292;2023-12-07T08:27:49;-4.29;58.70
71801;HTU21D;59647;55.838;37.292;2023-12-07T08:30:15;-4.16;58.90
71801;HTU21D;59647;55.838;37.292;2023-12-07T08:32:41;-4.21;60.26
71801;HTU21D;59647;55.838;37.292;2023-12-07T08:35:07;-4.27;59.62
71801;HTU21D;59647;55.838;37.292;2023-12-07T08:37:36;-4.28;59.38
71801;HTU21D;59647;55.838;37.292;2023-12-07T08:40:03;-4.30;60.83
71801;HTU21D;59647;55.838;37.292;2023-12-07T08:42:29;-4.36;59.83
71801;HTU21D;59647;55.838;37.292;2023-12-07T08:44:58;-4.34;60.31
71801;HTU21D;59647;55.838;37.292;2023-12-07T08:47:24;-4.31;60.41
71801;HTU21D;59647;55.838;37.292;2023-12-07T08:49:53;-4.24;60.22
71801;HTU21D;59647;55.838;37.292;2023-12-07T08:52:19;-4.22;58.61
71801;HTU21D;59647;55.838;37.292;2023-12-07T08:54:45;-4.23;59.39
71801;HTU21D;59647;55.838;37.292;2023-12-07T08:57:12;-4.23;58.21
71801;HTU21D;59647;55.838;37.292;2023-12-07T08:59:38;-4.22;58.49
71801;HTU21D;59647;55.838;37.292;2023-12-07T09:02:05;-4.16;59.51
71801;HTU21D;59647;55.838;37.292;2023-12-07T09:04:30;-4.13;58.35
71801;HTU21D;59647;55.838;37.292;2023-12-07T09:06:57;-4.07;60.83
71801;HTU21D;59647;55.838;37.292;2023-12-07T09:09:23;-4.00;57.49
71801;HTU21D;59647;55.838;37.292;2023-12-07T09:11:49;-3.98;57.53
71801;HTU21D;59647;55.838;37.292;2023-12-07T09:14:15;-3.99;56.62
71801;HTU21D;59647;55.838;37.292;2023-12-07T09:16:44;-3.96;57.75
71801;HTU21D;59647;55.838;37.292;2023-12-07T09:19:11;-3.87;58.66
71801;HTU21D;59647;55.838;37.292;2023-12-07T09:21:39;-3.75;58.45
71801;HTU21D;59647;55.838;37.292;2023-12-07T09:24:05;-3.66;58.12
71801;HTU21D;59647;55.838;37.292;2023-12-07T09:26:34;-3.67;56.89
71801;HTU21D;59647;55.838;37.292;2023-12-07T09:29:00;-3.72;56.02
71801;HTU21D;59647;55.838;37.292;2023-12-07T09:31:26;-3.77;57.14
71801;HTU21D;59647;55.838;37.292;2023-12-07T09:33:53;-3.85;56.33
71801;HTU21D;59647;55.838;37.292;2023-12-07T09:36:19;-3.96;55.66
71801;HTU21D;59647;55.838;37.292;2023-12-07T09:38:47;-4.00;56.16
71801;HTU21D;59647;55.838;37.292;2023-12-07T09:41:13;-4.04;57.18
71801;HTU21D;59647;55.838;37.292;2023-12-07T09:43:39;-4.13;57.00
71801;HTU21D;59647;55.838;37.292;2023-12-07T09:46:06;-4.31;56.61
71801;HTU21D;59647;55.838;37.292;2023-12-07T09:48:32;-4.37;57.93
71801;HTU21D;59647;55.838;37.292;2023-12-07T09:50:59;-4.45;54.97
71801;HTU21D;59647;55.838;37.292;2023-12-07T09:53:29;-4.53;56.11
71801;HTU21D;59647;55.838;37.292;2023-12-07T09:55:55;-4.58;56.08
71801;HTU21D;59647;55.838;37.292;2023-12-07T09:58:21;-4.66;55.49
71801;HTU21D;59647;55.838;37.292;2023-12-07T10:00:48;-4.71;56.13
71801;HTU21D;59647;55.838;37.292;2023-12-07T10:03:21;-4.69;56.81
71801;HTU21D;59647;55.838;37.292;2023-12-07T10:05:54;-4.73;57.13
71801;HTU21D;59647;55.838;37.292;2023-12-07T10:08:33;-4.71;56.70
71801;HTU21D;59647;55.838;37.292;2023-12-07T10:11:09;-4.69;56.53
71801;HTU21D;59647;55.838;37.292;2023-12-07T10:13:37;-4.68;57.04
71801;HTU21D;59647;55.838;37.292;2023-12-07T10:16:13;-4.63;58.31
71801;HTU21D;59647;55.838;37.292;2023-12-07T10:18:44;-4.57;57.69
71801;HTU21D;59647;55.838;37.292;2023-12-07T10:21:12;-4.55;57.56
71801;HTU21D;59647;55.838;37.292;2023-12-07T10:23:38;-4.51;58.38
71801;HTU21D;59647;55.838;37.292;2023-12-07T10:26:06;-4.50;57.83
71801;HTU21D;59647;55.838;37.292;2023-12-07T10:28:36;-4.52;56.92
71801;HTU21D;59647;55.838;37.292;2023-12-07T10:31:03;-4.53;57.60
71801;HTU21D;59647;55.838;37.292;2023-12-07T10:33:29;-4.56;57.12
71801;HTU21D;59647;55.838;37.292;2023-12-07T10:35:55;-4.61;57.42
71801;HTU21D;59647;55.838;37.292;2023-12-07T10:38:21;-4.65;57.20
71801;HTU21D;59647;55.838;37.292;2023-12-07T10:40:49;-4.60;58.96
71801;HTU21D;59647;55.838;37.292;2023-12-07T10:43:19;-4.55;58.12
71801;HTU21D;59647;55.838;37.292;2023-12-07T10:45:47;-4.58;57.42
71801;HTU21D;59647;55.838;37.292;2023-12-07T10:48:13;-4.68;56.29
71801;HTU21D;59647;55.838;37.292;2023-12-07T10:50:46;-4.70;57.39
71801;HTU21D;59647;55.838;37.292;2023-12-07T10:53:27;-4.72;58.66
71801;HTU21D;59647;55.838;37.292;2023-12-07T10:56:00;-4.71;58.45
71801;HTU21D;59647;55.838;37.292;2023-12-07T10:58:26;-4.69;58.06
71801;HTU21D;59647;55.838;37.292;2023-12-07T11:00:54;-4.68;57.64
71801;HTU21D;59647;55.838;37.292;2023-12-07T11:03:21;-4.66;59.28
71801;HTU21D;59647;55.838;37.292;2023-12-07T11:05:48;-4.67;61.76
71801;HTU21D;59647;55.838;37.292;2023-12-07T11:11:28;-4.88;59.66
71801;HTU21D;59647;55.838;37.292;2023-12-07T11:14:02;-4.93;59.80
71801;HTU21D;59647;55.838;37.292;2023-12-07T11:16:32;-4.98;59.73
71801;HTU21D;59647;55.838;37.292;2023-12-07T11:19:01;-5.13;60.01
71801;HTU21D;59647;55.838;37.292;2023-12-07T11:21:27;-5.27;61.96
71801;HTU21D;59647;55.838;37.292;2023-12-07T11:23:53;-5.43;62.02
71801;HTU21D;59647;55.838;37.292;2023-12-07T11:26:23;-5.56;64.08
71801;HTU21D;59647;55.838;37.292;2023-12-07T11:28:50;-5.64;64.43
71801;HTU21D;59647;55.838;37.292;2023-12-07T11:31:17;-5.88;63.37
71801;HTU21D;59647;55.838;37.292;2023-12-07T11:33:43;-5.94;62.72
71801;HTU21D;59647;55.838;37.292;2023-12-07T11:36:10;-5.91;63.47
71801;HTU21D;59647;55.838;37.292;2023-12-07T11:38:37;-5.91;62.08
71801;HTU21D;59647;55.838;37.292;2023-12-07T11:41:03;-5.85;62.84
71801;HTU21D;59647;55.838;37.292;2023-12-07T11:45:59;-5.83;62.30
71801;HTU21D;59647;55.838;37.292;2023-12-07T11:48:25;-5.84;63.24
71801;HTU21D;59647;55.838;37.292;2023-12-07T11:51:05;-5.88;61.77
71801;HTU21D;59647;55.838;37.292;2023-12-07T11:53:31;-5.88;62.08
71801;HTU21D;59647;55.838;37.292;2023-12-07T11:56:00;-5.91;61.82
71801;HTU21D;59647;55.838;37.292;2023-12-07T11:58:28;-6.12;61.60
71801;HTU21D;59647;55.838;37.292;2023-12-07T12:00:55;-6.21;61.22
71801;HTU21D;59647;55.838;37.292;2023-12-07T12:03:24;-6.32;61.72
71801;HTU21D;59647;55.838;37.292;2023-12-07T12:05:50;-6.18;63.82
71801;HTU21D;59647;55.838;37.292;2023-12-07T12:08:17;-6.11;63.81
71801;HTU21D;59647;55.838;37.292;2023-12-07T12:10:44;-6.03;63.46
71801;HTU21D;59647;55.838;37.292;2023-12-07T12:13:11;-6.05;61.83
71801;HTU21D;59647;55.838;37.292;2023-12-07T12:15:38;-6.04;63.47
71801;HTU21D;59647;55.838;37.292;2023-12-07T12:18:07;-6.03;62.82
71801;HTU21D;59647;55.838;37.292;2023-12-07T12:20:33;-6.08;62.23
71801;HTU21D;59647;55.838;37.292;2023-12-07T12:22:59;-6.07;63.39
71801;HTU21D;59647;55.838;37.292;2023-12-07T12:25:28;-6.14;63.70
71801;HTU21D;59647;55.838;37.292;2023-12-07T12:28:03;-6.12;64.01
71801;HTU21D;59647;55.838;37.292;2023-12-07T12:30:30;-6.03;64.08
71801;HTU21D;59647;55.838;37.292;2023-12-07T12:32:56;-6.08;63.70
71801;HTU21D;59647;55.838;37.292;2023-12-07T12:35:23;-6.03;63.96
71801;HTU21D;59647;55.838;37.292;2023-12-07T12:37:49;-6.12;62.82
71801;HTU21D;59647;55.838;37.292;2023-12-07T12:40:17;-6.15;63.17
71801;HTU21D;59647;55.838;37.292;2023-12-07T12:42:48;-6.16;62.98
71801;HTU21D;59647;55.838;37.292;2023-12-07T12:45:15;-6.12;64.67
71801;HTU21D;59647;55.838;37.292;2023-12-07T12:47:42;-6.13;64.40
71801;HTU21D;59647;55.838;37.292;2023-12-07T12:50:12;-6.07;64.44
71801;HTU21D;59647;55.838;37.292;2023-12-07T12:52:42;-6.12;64.98
71801;HTU21D;59647;55.838;37.292;2023-12-07T12:55:09;-6.07;65.01
71801;HTU21D;59647;55.838;37.292;2023-12-07T12:57:37;-6.04;64.88
71801;HTU21D;59647;55.838;37.292;2023-12-07T13:00:04;-6.15;63.77
71801;HTU21D;59647;55.838;37.292;2023-12-07T13:02:33;-6.16;63.78
71801;HTU21D;59647;55.838;37.292;2023-12-07T13:05:00;-6.27;62.61
71801;HTU21D;59647;55.838;37.292;2023-12-07T13:07:26;-6.41;63.78
71801;HTU21D;59647;55.838;37.292;2023-12-07T13:09:52;-6.52;63.50
71801;HTU21D;59647;55.838;37.292;2023-12-07T13:12:18;-6.52;64.78
71801;HTU21D;59647;55.838;37.292;2023-12-07T13:14:44;-6.46;65.44
71801;HTU21D;59647;55.838;37.292;2023-12-07T13:17:10;-6.59;65.27
71801;HTU21D;59647;55.838;37.292;2023-12-07T13:19:36;-6.60;65.49
71801;HTU21D;59647;55.838;37.292;2023-12-07T13:22:02;-6.56;65.55
71801;HTU21D;59647;55.838;37.292;2023-12-07T13:24:32;-6.62;65.43
71801;HTU21D;59647;55.838;37.292;2023-12-07T13:26:58;-6.73;64.05
71801;HTU21D;59647;55.838;37.292;2023-12-07T13:29:27;-6.79;64.81
71801;HTU21D;59647;55.838;37.292;2023-12-07T13:31:53;-6.77;65.43
71801;HTU21D;59647;55.838;37.292;2023-12-07T13:34:19;-6.73;65.30
71801;HTU21D;59647;55.838;37.292;2023-12-07T13:36:47;-6.72;65.04
71801;HTU21D;59647;55.838;37.292;2023-12-07T13:39:14;-6.70;65.76
71801;HTU21D;59647;55.838;37.292;2023-12-07T13:41:40;-6.75;65.30
71801;HTU21D;59647;55.838;37.292;2023-12-07T13:44:06;-6.85;65.91
71801;HTU21D;59647;55.838;37.292;2023-12-07T13:46:32;-6.83;65.75
71801;HTU21D;59647;55.838;37.292;2023-12-07T13:48:59;-6.83;65.72
71801;HTU21D;59647;55.838;37.292;2023-12-07T13:51:25;-6.90;66.41
71801;HTU21D;59647;55.838;37.292;2023-12-07T13:53:50;-6.89;65.46
71801;HTU21D;59647;55.838;37.292;2023-12-07T13:56:22;-6.88;65.16
71801;HTU21D;59647;55.838;37.292;2023-12-07T13:58:51;-6.91;65.72
71801;HTU21D;59647;55.838;37.292;2023-12-07T14:01:18;-6.92;64.49
71801;HTU21D;59647;55.838;37.292;2023-12-07T14:03:44;-6.95;65.57
71801;HTU21D;59647;55.838;37.292;2023-12-07T14:06:10;-6.94;65.81
71801;HTU21D;59647;55.838;37.292;2023-12-07T14:08:38;-6.92;65.79
71801;HTU21D;59647;55.838;37.292;2023-12-07T14:11:04;-6.87;65.84
71801;HTU21D;59647;55.838;37.292;2023-12-07T14:13:30;-7.00;64.98
71801;HTU21D;59647;55.838;37.292;2023-12-07T14:15:56;-7.02;65.78
71801;HTU21D;59647;55.838;37.292;2023-12-07T14:18:22;-7.02;65.72
71801;HTU21D;59647;55.838;37.292;2023-12-07T14:20:48;-7.03;65.68
71801;HTU21D;59647;55.838;37.292;2023-12-07T14:23:14;-6.96;66.40
71801;HTU21D;59647;55.838;37.292;2023-12-07T14:25:41;-6.89;65.66
71801;HTU21D;59647;55.838;37.292;2023-12-07T14:28:12;-6.95;65.24
71801;HTU21D;59647;55.838;37.292;2023-12-07T14:30:38;-7.01;65.34
71801;HTU21D;59647;55.838;37.292;2023-12-07T14:33:04;-6.98;65.80
71801;HTU21D;59647;55.838;37.292;2023-12-07T14:35:30;-6.98;65.51
71801;HTU21D;59647;55.838;37.292;2023-12-07T14:37:56;-7.00;64.79
71801;HTU21D;59647;55.838;37.292;2023-12-07T14:40:22;-7.01;64.97
71801;HTU21D;59647;55.838;37.292;2023-12-07T14:42:48;-6.98;65.01
71801;HTU21D;59647;55.838;37.292;2023-12-07T14:45:14;-7.01;65.22
71801;HTU21D;59647;55.838;37.292;2023-12-07T14:47:41;-6.97;65.49
71801;HTU21D;59647;55.838;37.292;2023-12-07T14:50:07;-6.89;65.43
71801;HTU21D;59647;55.838;37.292;2023-12-07T14:52:33;-6.97;64.90
71801;HTU21D;59647;55.838;37.292;2023-12-07T14:55:00;-7.12;64.46
71801;HTU21D;59647;55.838;37.292;2023-12-07T14:57:26;-7.08;65.46
71801;HTU21D;59647;55.838;37.292;2023-12-07T14:59:52;-7.21;64.55
71801;HTU21D;59647;55.838;37.292;2023-12-07T15:02:19;-7.41;64.47
71801;HTU21D;59647;55.838;37.292;2023-12-07T15:04:45;-7.37;65.46
71801;HTU21D;59647;55.838;37.292;2023-12-07T15:07:12;-7.30;66.26
71801;HTU21D;59647;55.838;37.292;2023-12-07T15:09:39;-7.33;65.97